createdAt,value
2022-11-29T00:46:06.646Z,43.30
2022-11-29T04:40:14.176Z,51.58
2022-11-29T06:16:33.424Z,49.08
2022-11-29T06:49:37.873Z,49.75
2022-11-29T06:52:39.129Z,49.83
2022-11-29T06:55:15.971Z,47.20
2022-11-29T06:57:55.626Z,45.45
2022-11-29T07:00:28.685Z,46.42
2022-11-29T07:03:38.031Z,47.80
2022-11-29T07:06:15.325Z,48.08
2022-11-29T07:08:43.374Z,49.33
2022-11-29T07:11:12.220Z,43.20
2022-11-29T07:13:40.140Z,44.45
2022-11-29T07:16:26.413Z,49.50
2022-11-29T07:19:17.350Z,41.63
2022-11-29T07:22:23.343Z,41.42
2022-11-29T07:24:53.388Z,42.28
2022-11-29T07:27:29.661Z,45.50
2022-11-29T07:30:23.801Z,43.17
2022-11-29T07:33:14.185Z,44.63
2022-11-29T07:36:02.374Z,41.35
2022-11-29T07:38:42.088Z,43.78
2022-11-29T07:41:25.327Z,44.05
2022-11-29T07:44:04.699Z,47.40
2022-11-29T07:46:32.574Z,43.72
2022-11-29T07:49:00.086Z,49.17
2022-11-29T07:51:27.712Z,46.60
2022-11-29T07:53:55.185Z,44.03
2022-11-29T07:56:22.714Z,44.40
2022-11-29T07:58:57.125Z,43.63
2022-11-29T08:01:24.590Z,43.88
2022-11-29T08:03:52.135Z,45.42
2022-11-29T08:06:26.470Z,45.97
2022-11-29T08:08:54.185Z,40.83
2022-11-29T08:11:21.672Z,45.90
2022-11-29T08:13:49.103Z,48.00
2022-11-29T08:16:19.596Z,44.25
2022-11-29T08:18:47.225Z,42.22
2022-11-29T08:21:59.254Z,41.88
2022-11-29T08:24:52.202Z,43.70
2022-11-29T08:31:28.117Z,46.83
2022-11-29T08:34:38.472Z,46.47
2022-11-29T08:37:30.760Z,49.75
2022-11-29T08:40:35.913Z,46.20
2022-11-29T08:43:08.764Z,42.80
2022-11-29T08:45:40.730Z,42.42
2022-11-29T08:48:21.729Z,41.53
2022-11-29T08:50:52.536Z,46.20
2022-11-29T08:54:01.623Z,44.47
2022-11-29T08:57:31.012Z,42.65
2022-11-29T08:59:22.620Z,43.60
2022-11-29T09:02:09.478Z,42.67
2022-11-29T09:04:55.586Z,46.47
2022-11-29T09:07:50.355Z,46.28
2022-11-29T09:10:28.751Z,45.80
2022-11-29T09:13:01.050Z,44.97
2022-11-29T09:15:34.120Z,45.05
2022-11-29T09:18:04.470Z,45.53
2022-11-29T09:20:36.711Z,44.25
2022-11-29T09:23:32.414Z,44.33
2022-11-29T09:36:33.303Z,44.75
2022-11-29T09:39:52.441Z,45.78
2022-11-29T09:43:17.019Z,46.03
2022-11-29T09:46:25.492Z,43.33
2022-11-29T09:50:28.912Z,41.53
2022-11-29T09:53:25.993Z,44.10
2022-11-29T09:56:55.625Z,47.60
2022-11-29T10:00:10.274Z,45.00
2022-11-29T10:13:50.803Z,42.63
2022-11-29T10:17:06.197Z,42.75
2022-11-29T10:24:35.554Z,46.33
2022-11-29T10:27:21.541Z,42.50
2022-11-29T10:30:44.190Z,44.42
2022-11-29T10:33:46.212Z,44.72
2022-11-29T10:37:09.692Z,43.97
2022-11-29T10:40:04.576Z,44.83
2022-11-29T10:42:56.624Z,47.13
2022-11-29T10:51:41.913Z,47.95
2022-11-29T10:55:43.046Z,41.88
2022-11-29T10:59:03.700Z,45.40
2022-11-29T11:03:13.113Z,50.15
2022-11-29T11:06:13.897Z,52.55
2022-11-29T11:15:35.392Z,42.17
2022-11-29T11:18:05.845Z,42.85
2022-11-29T11:20:35.858Z,47.13
2022-11-29T11:23:05.638Z,51.55
2022-11-29T11:25:35.842Z,52.05
2022-11-29T11:28:15.258Z,43.05
2022-11-29T11:31:02.294Z,44.85
2022-11-29T11:33:35.234Z,50.88
2022-11-29T11:36:07.513Z,47.03
2022-11-29T11:38:37.138Z,44.70
2022-11-29T11:41:48.148Z,49.08
2022-11-29T11:44:46.887Z,41.85
2022-11-29T11:47:31.547Z,49.22
2022-11-29T11:50:02.269Z,48.33
2022-11-29T11:52:37.081Z,50.45
2022-11-29T11:55:22.479Z,48.03
2022-11-29T11:58:07.824Z,46.60
2022-11-29T12:01:05.852Z,45.97
2022-11-29T12:06:46.587Z,49.40
2022-11-29T12:09:19.206Z,47.08
2022-11-29T12:12:07.917Z,49.60
2022-11-29T12:14:42.762Z,48.05
2022-11-29T12:17:26.891Z,53.15
2022-11-29T12:20:13.952Z,46.22
2022-11-29T12:22:51.031Z,42.75
2022-11-29T12:25:23.479Z,49.97
2022-11-29T12:27:53.986Z,48.65
2022-11-29T12:30:21.337Z,50.92
2022-11-29T12:33:20.622Z,48.67
2022-11-29T12:35:59.837Z,50.20
2022-11-29T12:39:04.535Z,46.10
2022-11-29T12:41:42.027Z,59.25
2022-11-29T12:44:37.127Z,50.47
2022-11-29T12:47:37.136Z,49.92
2022-11-29T12:50:38.970Z,54.03
2022-11-29T12:53:35.136Z,47.90
2022-11-29T12:56:20.900Z,50.38
2022-11-29T12:59:09.758Z,49.17
2022-11-29T13:01:52.077Z,56.05
2022-11-29T13:04:47.415Z,52.50
2022-11-29T13:07:41.870Z,46.92
2022-11-29T13:10:53.527Z,59.85
2022-11-29T13:13:39.066Z,50.30
2022-11-29T13:16:21.319Z,52.13
2022-11-29T13:19:13.451Z,48.30
2022-11-29T13:21:54.871Z,48.08
2022-11-29T13:24:44.721Z,53.80
2022-11-29T13:27:23.543Z,50.13
2022-11-29T13:29:51.220Z,53.10
2022-11-29T13:32:40.111Z,55.50
2022-11-29T13:35:30.408Z,49.08
2022-11-29T13:38:28.455Z,55.72
2022-11-29T13:41:33.606Z,54.85
2022-11-29T13:44:12.898Z,58.03
2022-11-29T13:47:10.058Z,52.40
2022-11-29T13:49:56.040Z,52.33
2022-11-29T13:52:35.279Z,53.00
2022-11-29T13:55:06.553Z,58.88
2022-11-29T13:58:16.380Z,47.55
2022-11-29T14:00:44.336Z,52.60
2022-11-29T14:03:21.863Z,50.33
2022-11-29T14:05:52.107Z,52.10
2022-11-29T14:08:23.415Z,58.33
2022-11-29T14:10:52.421Z,52.80
2022-11-29T14:13:22.625Z,63.22
2022-11-29T14:15:56.688Z,54.08
2022-11-29T14:18:42.124Z,56.72
2022-11-29T14:21:10.011Z,53.60
2022-11-29T14:23:40.611Z,48.78
2022-11-29T14:26:07.973Z,50.80
2022-11-29T14:28:36.107Z,56.28
2022-11-29T14:31:04.629Z,56.33
2022-11-29T14:33:47.315Z,56.20
2022-11-29T14:36:14.832Z,55.88
2022-11-29T14:39:04.853Z,55.63
2022-11-29T14:46:47.740Z,51.40
2022-11-29T14:49:21.812Z,53.92
2022-11-29T14:52:09.393Z,50.20
2022-11-29T14:54:54.655Z,51.45
2022-11-29T14:57:47.020Z,51.90
2022-11-29T15:00:32.645Z,59.40
2022-11-29T15:03:17.702Z,55.58
2022-11-29T16:23:37.659Z,51.97
2022-11-29T16:26:05.045Z,51.85
